Time;durP1;ratioP1;P1;durP2;ratioP2;P2;SDS_P1;SDS_P2;PMS_P1;PMS_P2;Temp;Humidity;BMP_temperature;BMP_pressure;BME280_temperature;BME280_humidity;BME280_pressure;Samples;Min_cycle;Max_cycle;Signal;HPM_P1;HPM_P2
2021/06/25 00:01:37;;;;;;;9.20;6.60;;;;;;;23.83;100.00;100601.87;1706817;82;20952;-46
2021/06/25 00:04:04;;;;;;;11.30;6.17;;;;;;;23.82;100.00;100600.19;1717979;82;21530;-45
2021/06/25 00:06:31;;;;;;;10.58;6.20;;;;;;;23.78;100.00;100592.02;1712218;82;21451;-47
2021/06/25 00:08:58;;;;;;;11.18;6.72;;;;;;;23.75;100.00;100594.56;1721663;82;20959;-47
2021/06/25 00:11:25;;;;;;;10.10;7.05;;;;;;;23.72;100.00;100590.80;1715029;82;20962;-47
2021/06/25 00:13:53;;;;;;;10.72;7.35;;;;;;;23.71;100.00;100594.53;1720038;82;20998;-47
2021/06/25 00:16:21;;;;;;;9.13;6.80;;;;;;;23.66;100.00;100592.84;1711898;82;21007;-48
2021/06/25 00:18:47;;;;;;;10.32;7.03;;;;;;;23.62;100.00;100595.06;1719876;82;21006;-48
2021/06/25 00:21:14;;;;;;;9.28;6.53;;;;;;;23.58;100.00;100576.02;1716573;82;21027;-47
2021/06/25 00:23:41;;;;;;;8.98;6.90;;;;;;;23.51;100.00;100575.87;1719938;82;21037;-48
2021/06/25 00:26:08;;;;;;;10.60;6.75;;;;;;;23.44;100.00;100585.73;1712428;82;21001;-50
2021/06/25 00:28:35;;;;;;;12.40;6.70;;;;;;;23.39;100.00;100581.31;1714767;81;20992;-45
2021/06/25 00:31:02;;;;;;;9.78;5.75;;;;;;;23.37;100.00;100584.71;1717227;82;21509;-48
2021/06/25 00:33:29;;;;;;;11.00;7.10;;;;;;;23.32;100.00;100587.09;1716142;82;20974;-47
2021/06/25 00:35:58;;;;;;;9.28;5.90;;;;;;;23.27;100.00;100593.03;1709120;82;20967;-47
2021/06/25 00:38:24;;;;;;;9.60;6.62;;;;;;;23.24;100.00;100591.17;1707310;82;20984;-45
2021/06/25 00:40:51;;;;;;;10.85;6.92;;;;;;;23.18;100.00;100585.03;1716989;82;20952;-50
2021/06/25 00:43:17;;;;;;;9.95;6.30;;;;;;;23.15;100.00;100588.10;1719821;82;20999;-49
2021/06/25 00:45:44;;;;;;;12.07;6.78;;;;;;;23.16;100.00;100585.23;1714215;81;20960;-47
2021/06/25 00:48:11;;;;;;;8.30;6.25;;;;;;;23.17;100.00;100577.91;1742061;81;20960;-49
2021/06/25 00:50:38;;;;;;;7.62;5.33;;;;;;;23.16;100.00;100577.07;1704444;83;20932;-47
2021/06/25 00:53:05;;;;;;;8.08;6.37;;;;;;;23.16;100.00;100572.11;1710288;83;21044;-49
2021/06/25 00:55:42;;;;;;;8.03;6.12;;;;;;;23.18;100.00;100567.36;1704422;81;21033;-51
2021/06/25 00:58:15;;;;;;;8.50;6.00;;;;;;;23.18;100.00;100570.08;1711213;82;20998;-46
2021/06/25 01:00:42;;;;;;;12.95;7.17;;;;;;;23.16;100.00;100577.07;1718864;82;21004;-47
2021/06/25 01:03:09;;;;;;;13.55;6.90;;;;;;;23.15;100.00;100576.70;1713905;82;20967;-46
2021/06/25 01:05:36;;;;;;;8.85;6.00;;;;;;;23.15;100.00;100577.22;1717481;83;20980;-45
2021/06/25 01:08:06;;;;;;;9.60;6.90;;;;;;;23.15;100.00;100574.51;1752202;80;21359;-45
2021/06/25 01:10:36;;;;;;;13.62;7.45;;;;;;;23.13;100.00;100573.81;1695678;83;21022;-44
2021/06/25 01:13:05;;;;;;;10.75;6.28;;;;;;;23.11;100.00;100568.56;1703721;81;20955;-50
2021/06/25 01:15:32;;;;;;;8.88;5.80;;;;;;;23.09;100.00;100580.12;1713208;83;21012;-47
2021/06/25 01:17:59;;;;;;;7.67;5.53;;;;;;;23.05;100.00;100580.95;1721864;82;20948;-49
2021/06/25 01:20:28;;;;;;;7.62;6.92;;;;;;;23.01;100.00;100575.52;1727034;81;21010;-47
2021/06/25 01:22:54;;;;;;;6.67;5.90;;;;;;;22.98;100.00;100574.51;1702510;83;21066;-48
2021/06/25 01:25:26;;;;;;;8.23;6.37;;;;;;;22.94;100.00;100573.09;1713571;82;20999;-49
2021/06/25 01:27:56;;;;;;;9.40;6.00;;;;;;;22.93;100.00;100566.46;1717183;81;20975;-49
2021/06/25 01:30:29;;;;;;;8.18;5.67;;;;;;;22.90;100.00;100572.56;1737459;80;21503;-49
2021/06/25 01:32:58;;;;;;;8.03;5.60;;;;;;;22.88;100.00;100569.67;1735359;81;20987;-48
2021/06/25 01:35:24;;;;;;;8.75;5.87;;;;;;;22.84;100.00;100564.25;1736020;81;20990;-48
2021/06/25 01:37:51;;;;;;;9.15;5.45;;;;;;;22.83;100.00;100563.41;1734449;81;21051;-48
2021/06/25 01:40:19;;;;;;;11.63;6.65;;;;;;;22.79;100.00;100565.27;1736852;81;21570;-49
2021/06/25 01:42:47;;;;;;;13.55;11.10;;;;;;;22.73;100.00;100559.99;1752808;81;20956;-47
2021/06/25 01:45:17;;;;;;;10.25;8.78;;;;;;;22.70;100.00;100563.02;1740935;81;20948;-47
2021/06/25 01:47:44;;;;;;;10.00;8.47;;;;;;;22.70;100.00;100564.38;1743120;81;21019;-47
2021/06/25 01:50:26;;;;;;;14.43;7.65;;;;;;;22.67;100.00;100567.44;1729767;81;21017;-50
2021/06/25 01:52:56;;;;;;;9.73;8.30;;;;;;;22.65;100.00;100567.62;1709363;83;20983;-48
2021/06/25 01:55:23;;;;;;;8.28;7.33;;;;;;;22.65;100.00;100561.31;1690836;83;20987;-50
2021/06/25 01:57:49;;;;;;;9.98;8.10;;;;;;;22.63;100.00;100555.22;1743420;81;20963;-45
2021/06/25 02:00:18;;;;;;;15.95;9.70;;;;;;;22.58;100.00;100558.43;1745327;81;20956;-50
2021/06/25 02:02:44;;;;;;;13.03;8.70;;;;;;;22.56;100.00;100555.02;1745804;81;21015;-48
2021/06/25 02:05:14;;;;;;;14.70;9.30;;;;;;;22.58;100.00;100557.55;1704129;83;20978;-46
2021/06/25 02:07:41;;;;;;;12.65;9.85;;;;;;;22.57;100.00;100557.22;1713391;81;21058;-49
2021/06/25 02:10:10;;;;;;;14.60;9.20;;;;;;;22.57;100.00;100558.58;1717628;82;21550;-48
2021/06/25 02:12:38;;;;;;;;;;;;;;;22.56;100.00;100543.31;1727392;83;21459;-46
2021/06/25 02:15:08;;;;;;;13.65;8.40;;;;;;;22.54;100.00;100553.48;1705172;82;20171;-49
2021/06/25 02:17:35;;;;;;;9.13;6.92;;;;;;;22.52;100.00;100555.52;1742972;80;20973;-50
2021/06/25 02:20:03;;;;;;;6.28;5.67;;;;;;;22.51;100.00;100553.31;1722553;81;20989;-50
2021/06/25 02:22:30;;;;;;;7.67;5.08;;;;;;;22.52;100.00;100555.52;1723680;82;21305;-48
2021/06/25 02:24:57;;;;;;;10.08;6.22;;;;;;;22.52;100.00;100556.36;1723851;82;20983;-49
2021/06/25 02:27:24;;;;;;;9.10;5.25;;;;;;;22.52;100.00;100552.80;1719473;81;21350;-46
2021/06/25 02:29:50;;;;;;;7.37;5.15;;;;;;;22.50;100.00;100548.03;1729994;81;20978;-44
2021/06/25 02:32:17;;;;;;;10.72;6.28;;;;;;;22.45;100.00;100556.67;1745402;81;21020;-46
2021/06/25 02:34:44;;;;;;;8.03;5.80;;;;;;;22.42;100.00;100557.84;1750537;81;20991;-45
2021/06/25 02:37:10;;;;;;;10.88;5.65;;;;;;;22.40;100.00;100563.11;1720885;82;21448;-46
2021/06/25 02:39:38;;;;;;;8.00;5.53;;;;;;;22.37;100.00;100571.08;1713900;81;21022;-45
2021/06/25 02:42:05;;;;;;;8.80;5.67;;;;;;;22.34;100.00;100580.07;1717327;82;20966;-44
2021/06/25 02:44:32;;;;;;;11.35;8.98;;;;;;;22.33;100.00;100577.87;1717543;81;20999;-45
2021/06/25 02:46:59;;;;;;;10.25;8.73;;;;;;;22.33;100.00;100575.67;1717623;82;21014;-45
2021/06/25 02:49:26;;;;;;;13.35;8.15;;;;;;;22.33;100.00;100578.38;1726008;81;20972;-44
2021/06/25 02:51:52;;;;;;;9.03;7.15;;;;;;;22.36;100.00;100575.33;1717059;82;20979;-44
2021/06/25 02:54:19;;;;;;;6.30;5.70;;;;;;;22.41;100.00;100577.05;1737636;81;20961;-45
2021/06/25 02:56:46;;;;;;;11.83;10.58;;;;;;;22.42;100.00;100569.23;1707339;82;21070;-45
2021/06/25 02:59:14;;;;;;;17.67;15.83;;;;;;;22.43;100.00;100567.72;1705394;82;21019;-45
2021/06/25 03:01:41;;;;;;;17.65;15.10;;;;;;;22.43;100.00;100565.52;1710515;82;21322;-44
2021/06/25 03:04:07;;;;;;;10.32;8.50;;;;;;;22.42;100.00;100569.23;1696570;83;21490;-43
2021/06/25 03:06:34;;;;;;;8.55;6.85;;;;;;;22.41;100.00;100564.83;1724347;83;20983;-43
2021/06/25 03:09:00;;;;;;;11.45;7.45;;;;;;;22.41;100.00;100563.47;1741072;81;21027;-44
2021/06/25 03:11:27;;;;;;;11.30;7.83;;;;;;;22.41;100.00;100565.67;1705866;82;20985;-42
2021/06/25 03:13:55;;;;;;;8.63;7.05;;;;;;;22.39;100.00;100563.62;1752791;81;20964;-44
2021/06/25 03:16:21;;;;;;;12.80;7.97;;;;;;;22.40;100.00;100562.63;1750605;81;21492;-43
2021/06/25 03:18:50;;;;;;;14.18;9.25;;;;;;;22.41;100.00;100563.47;1738769;81;20969;-43
2021/06/25 03:21:17;;;;;;;12.95;9.10;;;;;;;22.42;100.00;100566.00;1705806;83;21019;-44
2021/06/25 03:23:45;;;;;;;13.00;8.93;;;;;;;22.41;100.00;100574.33;1715521;81;21094;-45
2021/06/25 03:26:12;;;;;;;11.57;8.73;;;;;;;22.39;100.00;100578.56;1729774;81;21016;-43
2021/06/25 03:28:39;;;;;;;9.18;7.58;;;;;;;22.40;100.00;100584.35;1741035;81;20984;-43
2021/06/25 03:31:05;;;;;;;17.15;10.60;;;;;;;22.43;100.00;100586.73;1721575;81;20983;-45
2021/06/25 03:33:33;;;;;;;12.65;9.83;;;;;;;22.43;100.00;100582.66;1713169;82;20966;-46
2021/06/25 03:35:59;;;;;;;11.48;8.38;;;;;;;22.46;100.00;100587.75;1746746;81;20972;-44
2021/06/25 03:38:26;;;;;;;14.30;9.98;;;;;;;22.49;100.00;100583.86;1736726;81;20993;-44
2021/06/25 03:40:53;;;;;;;11.48;10.05;;;;;;;22.57;100.00;100585.23;1751650;81;20976;-44
2021/06/25 03:43:20;;;;;;;10.18;8.13;;;;;;;22.62;100.00;100586.95;1742809;81;20963;-45
2021/06/25 03:45:48;;;;;;;12.85;9.25;;;;;;;22.69;100.00;100578.99;1726839;82;21004;-45
2021/06/25 03:48:14;;;;;;;15.30;8.93;;;;;;;22.76;100.00;100580.55;1715861;82;21471;-45
2021/06/25 03:50:43;;;;;;;18.25;10.75;;;;;;;22.80;100.00;100580.54;1721183;82;20964;-45
2021/06/25 03:53:10;;;;;;;10.48;9.00;;;;;;;22.84;100.00;100584.64;1717902;82;21065;-45
2021/06/25 03:56:09;;;;;;;10.38;8.30;;;;;;;22.88;100.00;100579.19;1718119;82;21002;-45
2021/06/25 03:58:05;;;;;;;13.85;8.45;;;;;;;22.93;100.00;100578.20;1717721;82;21001;-44
2021/06/25 04:00:32;;;;;;;16.05;9.15;;;;;;;22.96;100.00;100572.43;1727954;82;21010;-45
2021/06/25 04:02:59;;;;;;;11.20;8.35;;;;;;;22.99;100.00;100569.40;1712049;82;20962;-47
2021/06/25 04:05:26;;;;;;;16.75;9.40;;;;;;;23.03;100.00;100560.38;1709045;81;21038;-45
2021/06/25 04:07:53;;;;;;;11.33;8.35;;;;;;;23.08;100.00;100551.20;1730365;81;21003;-45
2021/06/25 04:10:20;;;;;;;13.68;8.95;;;;;;;23.11;100.00;100544.09;1711119;82;20988;-45
2021/06/25 04:12:46;;;;;;;15.65;9.05;;;;;;;23.16;100.00;100546.28;1716556;82;21635;-45
2021/06/25 04:15:13;;;;;;;12.70;9.95;;;;;;;23.21;100.00;100546.63;1701137;82;20974;-49
2021/06/25 04:17:40;;;;;;;15.70;9.13;;;;;;;23.25;100.00;100546.11;1702113;83;20943;-50
2021/06/25 04:20:08;;;;;;;14.58;9.18;;;;;;;23.28;100.00;100543.56;1706833;83;21011;-48
2021/06/25 04:22:35;;;;;;;16.48;8.88;;;;;;;23.31;100.00;100541.37;1700154;82;20992;-48
2021/06/25 04:25:02;;;;;;;18.95;9.78;;;;;;;23.36;100.00;100535.42;1702354;82;21027;-48
2021/06/25 04:27:29;;;;;;;14.00;7.70;;;;;;;23.42;100.00;100538.80;1710135;82;21047;-47
2021/06/25 04:29:55;;;;;;;14.38;8.35;;;;;;;23.46;100.00;100533.36;1705123;82;21325;-48
2021/06/25 04:32:22;;;;;;;21.12;8.33;;;;;;;23.52;100.00;100528.58;1707908;82;20968;-44
2021/06/25 04:34:49;;;;;;;12.58;9.05;;;;;;;23.60;100.00;100529.59;1708950;82;21044;-46
2021/06/25 04:37:17;;;;;;;12.15;8.18;;;;;;;23.67;100.00;100531.96;1706983;81;20975;-45
2021/06/25 04:39:44;;;;;;;14.93;8.13;;;;;;;23.73;100.00;100525.84;1716755;82;21006;-45
2021/06/25 04:42:11;;;;;;;14.98;9.43;;;;;;;23.79;100.00;100520.20;1706585;82;20999;-45
2021/06/25 04:44:38;;;;;;;11.12;7.70;;;;;;;23.82;100.00;100520.72;1745521;81;21003;-45
2021/06/25 04:47:05;;;;;;;12.25;7.60;;;;;;;23.85;100.00;100526.33;1704746;83;21053;-49
2021/06/25 04:49:36;;;;;;;13.20;7.28;;;;;;;23.91;100.00;100526.97;1735638;81;21523;-49
2021/06/25 04:52:04;;;;;;;15.83;8.98;;;;;;;23.96;100.00;100529.53;1712310;82;21503;-47
2021/06/25 04:54:30;;;;;;;11.18;7.10;;;;;;;24.02;100.00;100527.97;1741106;80;20961;-46
2021/06/25 04:56:59;;;;;;;12.58;7.80;;;;;;;24.08;100.00;100525.89;1732396;81;20986;-45
2021/06/25 04:59:28;;;;;;;10.13;7.42;;;;;;;24.14;100.00;100520.24;1736687;80;21595;-45
2021/06/25 05:01:56;;;;;;;12.00;7.17;;;;;;;24.21;100.00;100521.75;1743291;81;20976;-47
2021/06/25 05:04:22;;;;;;;13.03;7.12;;;;;;;24.26;100.00;100528.36;1722145;81;21501;-47
2021/06/25 05:06:49;;;;;;;15.53;6.45;;;;;;;24.31;100.00;100530.04;1755162;81;21003;-43
2021/06/25 05:09:16;;;;;;;14.07;7.22;;;;;;;24.38;100.00;100543.80;1748632;81;21027;-45
2021/06/25 05:11:43;;;;;;;13.95;6.97;;;;;;;24.45;100.00;100537.14;1755555;81;21126;-46
2021/06/25 05:14:10;;;;;;;12.78;6.42;;;;;;;24.52;100.00;100536.28;1751248;81;21007;-46
2021/06/25 05:16:37;;;;;;;11.70;6.47;;;;;;;24.59;100.00;100533.66;1718179;81;21315;-46
2021/06/25 05:19:05;;;;;;;16.02;7.20;;;;;;;24.67;100.00;100532.27;1702020;82;20933;-47
2021/06/25 05:21:32;;;;;;;16.15;8.05;;;;;;;24.74;100.00;100520.95;1716748;82;21123;-52
2021/06/25 05:23:59;;;;;;;12.40;6.30;;;;;;;24.78;100.00;100527.75;1712681;82;21451;-47
2021/06/25 05:26:25;;;;;;;13.28;6.70;;;;;;;24.84;100.00;100528.37;1723517;82;20936;-46
2021/06/25 05:28:52;;;;;;;13.05;5.97;;;;;;;24.92;100.00;100530.22;1716864;81;21538;-48
2021/06/25 05:31:19;;;;;;;8.85;5.45;;;;;;;24.99;100.00;100531.69;1718180;82;21002;-46
2021/06/25 05:33:46;;;;;;;14.83;6.03;;;;;;;25.07;100.00;100528.05;1717594;82;21505;-44
2021/06/25 05:36:12;;;;;;;7.95;5.67;;;;;;;25.14;100.00;100530.38;1720982;82;20948;-47
2021/06/25 05:38:39;;;;;;;13.78;5.95;;;;;;;25.21;100.00;100533.58;1714996;82;21003;-48
2021/06/25 05:41:06;;;;;;;7.72;6.20;;;;;;;25.30;100.00;100536.23;1699392;83;20967;-46
2021/06/25 05:43:33;;;;;;;11.88;6.45;;;;;;;25.36;100.00;100529.53;1726996;81;20982;-50
2021/06/25 05:46:00;;;;;;;15.43;7.92;;;;;;;25.42;100.00;100530.14;1709010;83;21110;-46
2021/06/25 05:48:27;;;;;;;12.13;7.37;;;;;;;25.49;100.00;100522.06;1722800;82;21495;-45
2021/06/25 05:50:53;;;;;;;13.58;6.28;;;;;;;25.56;100.00;100528.48;1722406;82;20999;-46
2021/06/25 05:53:20;;;;;;;9.75;5.25;;;;;;;25.63;100.00;100526.70;1726845;81;20952;-46
2021/06/25 05:55:47;;;;;;;11.15;5.50;;;;;;;25.69;100.00;100531.41;1718142;82;21009;-45
2021/06/25 05:58:14;;;;;;;13.68;6.78;;;;;;;25.76;100.00;100538.34;1723641;82;20963;-45
2021/06/25 06:00:40;;;;;;;13.72;6.05;;;;;;;25.83;100.00;100546.11;1710861;82;21014;-46
2021/06/25 06:03:07;;;;;;;11.00;6.12;;;;;;;25.89;100.00;100554.09;1714246;82;21025;-43
2021/06/25 06:05:35;;;;;;;14.70;5.80;;;;;;;25.94;100.00;100550.80;1720856;82;21011;-48
2021/06/25 06:08:04;;;;;;;9.60;4.95;;;;;;;26.01;100.00;100551.75;1708840;82;21018;-45
2021/06/25 06:10:31;;;;;;;11.90;5.25;;;;;;;26.06;100.00;100552.88;1739335;80;21003;-45
2021/06/25 06:12:58;;;;;;;9.60;5.58;;;;;;;26.12;100.00;100548.00;1747495;81;20976;-46
2021/06/25 06:15:25;;;;;;;13.45;5.37;;;;;;;26.19;100.00;100552.73;1743198;81;20928;-46
2021/06/25 06:17:55;;;;;;;7.55;3.95;;;;;;;26.22;100.00;100550.45;1741332;81;20995;-49
2021/06/25 06:20:24;;;;;;;10.63;4.40;;;;;;;26.27;100.00;100557.55;1721892;81;21891;-47
2021/06/25 06:31:21;;;;;;;9.08;6.17;;;;;;;26.44;100.00;100556.83;1710206;82;21480;-45
2021/06/25 06:33:54;;;;;;;8.90;4.72;;;;;;;26.50;100.00;100559.31;1712790;83;20937;-46
2021/06/25 06:36:33;;;;;;;8.33;5.12;;;;;;;26.55;100.00;100563.71;1711666;82;20992;-50
2021/06/25 06:39:05;;;;;;;9.53;4.33;;;;;;;26.62;100.00;100574.73;1738738;81;21466;-46
2021/06/25 06:41:32;;;;;;;11.20;5.03;;;;;;;26.64;94.50;100569.93;1743592;80;21037;-49
2021/06/25 06:43:59;;;;;;;12.95;7.30;;;;;;;26.67;93.15;100564.91;1708907;82;22228;-50
2021/06/25 06:46:27;;;;;;;12.40;5.00;;;;;;;26.73;93.47;100564.12;1709261;82;21086;-45
2021/06/25 06:48:57;;;;;;;8.50;3.50;;;;;;;26.78;93.35;100562.70;1719743;82;20975;-46
2021/06/25 06:51:25;;;;;;;13.83;4.22;;;;;;;26.83;90.48;100562.97;1731081;81;21570;-46
2021/06/25 06:53:52;;;;;;;12.60;4.80;;;;;;;26.88;89.19;100568.17;1712154;82;21008;-47
2021/06/25 06:56:21;;;;;;;13.70;5.20;;;;;;;26.91;85.95;100558.23;1734550;82;20955;-48
2021/06/25 06:58:51;;;;;;;6.80;4.20;;;;;;;26.96;90.53;100567.20;1717703;82;20980;-46
2021/06/25 07:01:21;;;;;;;10.20;4.30;;;;;;;26.98;90.96;100567.34;1721040;82;21020;-43
2021/06/25 07:03:48;;;;;;;8.35;4.67;;;;;;;27.03;90.22;100562.65;1725664;81;21576;-46
2021/06/25 07:06:15;;;;;;;15.50;4.58;;;;;;;27.09;90.31;100561.89;1714145;82;20983;-51
2021/06/25 07:08:42;;;;;;;9.23;3.90;;;;;;;27.16;90.53;100560.03;1706289;82;21051;-51
2021/06/25 07:11:09;;;;;;;7.70;3.35;;;;;;;27.22;88.05;100554.88;1712370;83;21027;-47
2021/06/25 07:13:35;;;;;;;14.78;6.40;;;;;;;27.27;85.71;100555.97;1709844;82;21553;-49
2021/06/25 07:16:02;;;;;;;7.45;3.40;;;;;;;27.32;83.44;100544.44;1740909;81;20936;-50
2021/06/25 07:18:29;;;;;;;11.60;3.95;;;;;;;27.37;80.61;100546.91;1722687;81;21431;-45
2021/06/25 07:20:56;;;;;;;10.13;4.05;;;;;;;27.44;81.56;100546.09;1733103;81;21601;-47
2021/06/25 07:23:23;;;;;;;9.55;3.67;;;;;;;27.48;79.20;100536.45;1740844;80;21510;-47
2021/06/25 07:25:49;;;;;;;8.18;4.25;;;;;;;27.56;85.57;100533.55;1704239;81;20944;-47
2021/06/25 07:28:16;;;;;;;11.33;3.12;;;;;;;27.60;82.69;100528.85;1716311;81;20964;-47
2021/06/25 07:30:42;;;;;;;15.18;4.10;;;;;;;27.66;83.20;100523.09;1719604;82;20975;-47
2021/06/25 07:33:09;;;;;;;14.28;4.03;;;;;;;27.72;83.12;100521.44;1722729;81;21390;-53
2021/06/25 07:35:36;;;;;;;9.40;3.72;;;;;;;27.79;83.82;100522.33;1728340;82;20955;-44
2021/06/25 07:38:03;;;;;;;6.87;3.55;;;;;;;27.85;84.95;100521.57;1717991;81;21597;-43
2021/06/25 07:40:29;;;;;;;9.93;4.17;;;;;;;27.91;88.68;100526.23;1719354;82;21028;-55
2021/06/25 07:42:56;;;;;;;10.10;4.25;;;;;;;27.97;85.92;100525.94;1718612;82;21018;-43
2021/06/25 07:45:22;;;;;;;11.63;4.15;;;;;;;28.04;78.68;100520.81;1718363;82;20974;-45
2021/06/25 07:47:49;;;;;;;7.85;3.17;;;;;;;28.15;77.41;100515.80;1718645;81;21031;-46
2021/06/25 07:50:17;;;;;;;9.00;3.62;;;;;;;28.22;79.26;100508.45;1719773;81;20947;-47
2021/06/25 07:52:44;;;;;;;6.92;4.08;;;;;;;28.25;80.29;100506.70;1703121;83;20976;-45
2021/06/25 07:55:12;;;;;;;7.75;3.45;;;;;;;28.29;80.23;100504.38;1751423;81;20988;-45
2021/06/25 07:57:40;;;;;;;9.58;4.30;;;;;;;28.30;76.52;100504.69;1727220;81;21002;-43
2021/06/25 08:00:09;;;;;;;7.22;3.85;;;;;;;28.32;74.77;100508.91;1706971;82;20980;-44
2021/06/25 08:02:43;;;;;;;13.00;4.50;;;;;;;28.35;76.88;100507.16;1715297;81;20963;-42
2021/06/25 08:05:11;;;;;;;8.23;4.65;;;;;;;28.40;80.10;100507.88;1715940;81;20965;-49
2021/06/25 08:07:38;;;;;;;12.35;4.22;;;;;;;28.43;78.72;100507.50;1709295;83;21468;-47
2021/06/25 08:10:07;;;;;;;13.35;4.28;;;;;;;28.48;76.48;100505.84;1703538;83;20998;-48
2021/06/25 08:12:34;;;;;;;16.30;10.37;;;;;;;28.54;79.98;100509.66;1739051;81;21023;-48
2021/06/25 08:15:00;;;;;;;11.28;4.87;;;;;;;28.59;79.08;100509.88;1748227;81;20978;-47
2021/06/25 08:17:27;;;;;;;5.62;3.30;;;;;;;28.64;77.75;100511.47;1739656;81;21557;-48
2021/06/25 08:19:54;;;;;;;16.35;4.72;;;;;;;28.68;76.33;100512.76;1712909;82;21014;-47
2021/06/25 08:22:21;;;;;;;9.43;4.00;;;;;;;28.73;74.69;100512.14;1737699;81;21050;-47
2021/06/25 08:24:47;;;;;;;10.65;3.98;;;;;;;28.81;75.72;100519.33;1738333;81;21043;-47
2021/06/25 08:27:14;;;;;;;8.05;3.20;;;;;;;28.91;75.38;100526.62;1723512;81;21009;-47
2021/06/25 08:29:41;;;;;;;7.25;3.77;;;;;;;28.98;72.89;100518.37;1743949;81;20980;-45
2021/06/25 08:32:08;;;;;;;8.95;3.75;;;;;;;29.06;71.61;100517.70;1741807;81;20980;-44
2021/06/25 08:34:35;;;;;;;7.53;3.35;;;;;;;29.14;70.48;100522.13;1717037;81;21019;-44
2021/06/25 08:37:03;;;;;;;7.87;3.58;;;;;;;29.19;69.86;100516.86;1732301;81;20992;-51
2021/06/25 08:39:30;;;;;;;8.08;3.60;;;;;;;29.27;70.27;100522.66;1722102;82;20934;-49
2021/06/25 08:42:04;;;;;;;11.63;3.70;;;;;;;29.34;70.07;100527.63;1696095;82;20936;-46
2021/06/25 08:44:35;;;;;;;8.93;3.62;;;;;;;29.40;67.49;100525.39;1715748;81;21060;-46
2021/06/25 08:47:02;;;;;;;11.03;4.33;;;;;;;29.44;67.19;100529.41;1724130;81;20952;-46
2021/06/25 08:49:29;;;;;;;6.45;3.92;;;;;;;29.50;66.38;100526.34;1712789;83;21502;-46
2021/06/25 08:51:56;;;;;;;10.43;5.10;;;;;;;29.57;65.85;100526.34;1721058;82;21903;-46
2021/06/25 08:54:23;;;;;;;11.03;4.10;;;;;;;29.65;63.46;100516.50;1708512;83;21005;-46
2021/06/25 08:56:49;;;;;;;5.80;3.55;;;;;;;29.72;64.07;100518.73;1699080;82;20961;-46
2021/06/25 08:59:19;;;;;;;8.23;3.65;;;;;;;29.76;68.34;100519.47;1709232;82;20967;-45
2021/06/25 09:01:50;;;;;;;9.48;5.25;;;;;;;29.79;68.38;100518.20;1715380;82;20988;-46
2021/06/25 09:04:44;;;;;;;11.35;5.40;;;;;;;29.81;67.37;100517.97;1708405;82;21636;-47
2021/06/25 09:07:09;;;;;;;7.03;3.87;;;;;;;29.82;67.11;100516.39;1709339;82;21447;-46
2021/06/25 09:09:45;;;;;;;5.83;3.40;;;;;;;29.85;66.62;100514.58;1701593;82;20976;-45
2021/06/25 09:12:24;;;;;;;10.65;3.92;;;;;;;29.84;65.80;100509.31;1695601;82;20951;-46
2021/06/25 09:15:14;;;;;;;9.83;3.27;;;;;;;29.86;65.42;100508.04;1708655;82;21031;-43
2021/06/25 09:18:01;;;;;;;7.08;2.62;;;;;;;29.88;66.42;100499.56;1713788;83;21015;-46
2021/06/25 09:20:36;;;;;;;6.25;2.95;;;;;;;29.92;63.09;100504.41;1705249;82;21047;-43
2021/06/25 09:23:14;;;;;;;7.92;3.72;;;;;;;29.96;61.70;100503.44;1704960;82;20988;-47
2021/06/25 09:26:05;;;;;;;9.60;3.20;;;;;;;30.03;61.14;100500.14;1702982;83;20986;-44
2021/06/25 09:28:44;;;;;;;5.70;2.90;;;;;;;30.15;61.55;100497.56;1703627;82;20984;-43
2021/06/25 09:31:23;;;;;;;13.55;3.83;;;;;;;30.26;59.63;100501.56;1710814;81;21519;-45
2021/06/25 09:33:52;;;;;;;5.78;2.98;;;;;;;30.34;58.05;100499.92;1705996;82;20968;-45
2021/06/25 09:36:33;;;;;;;8.50;4.37;;;;;;;30.39;58.10;100501.48;1703491;82;21047;-45
2021/06/25 09:39:08;;;;;;;7.77;4.20;;;;;;;30.45;59.70;100503.38;1727538;81;20955;-45
2021/06/25 09:41:37;;;;;;;8.65;3.50;;;;;;;30.53;60.29;100511.36;1711263;82;21240;-44
2021/06/25 09:44:08;;;;;;;9.53;2.95;;;;;;;30.62;60.79;100504.55;1714757;81;21382;-48
2021/06/25 09:46:38;;;;;;;5.17;2.98;;;;;;;30.70;59.49;100499.86;1708974;83;20990;-45
2021/06/25 09:49:11;;;;;;;6.10;3.05;;;;;;;30.75;62.12;100503.62;1749570;80;20993;-45
2021/06/25 09:51:57;;;;;;;6.33;2.77;;;;;;;30.78;57.37;100500.41;1725161;81;20971;-53
2021/06/25 09:54:25;;;;;;;6.67;2.42;;;;;;;30.81;57.79;100495.00;1732851;81;21003;-55
2021/06/25 09:57:02;;;;;;;5.20;2.52;;;;;;;30.85;55.97;100495.45;1732219;81;21007;-44
2021/06/25 10:02:22;;;;;;;;;;;;;;;30.87;50.34;100485.03;1700718;83;20983;-46
2021/06/25 10:04:59;;;;;;;3.52;2.10;;;;;;;30.87;49.57;100485.03;1717072;81;20114;-48
2021/06/25 10:07:28;;;;;;;3.55;2.10;;;;;;;30.87;46.09;100481.78;1714233;81;20988;-49
2021/06/25 10:10:07;;;;;;;5.67;2.30;;;;;;;30.89;45.65;100472.73;1738764;80;20972;-50
2021/06/25 10:12:36;;;;;;;3.42;2.00;;;;;;;30.94;46.22;100470.70;1712220;81;20984;-53
2021/06/25 10:15:03;;;;;;;8.83;2.22;;;;;;;31.00;46.43;100467.06;1738750;81;20987;-56
2021/06/25 10:17:30;;;;;;;6.78;3.22;;;;;;;31.05;46.13;100471.36;1715224;81;21020;-49
2021/06/25 10:20:05;;;;;;;4.22;2.00;;;;;;;31.08;43.26;100467.31;1710706;81;21005;-48
2021/06/25 10:22:32;;;;;;;3.30;2.27;;;;;;;31.11;44.36;100470.98;1697205;82;21876;-46
2021/06/25 10:24:59;;;;;;;4.35;2.65;;;;;;;31.14;48.97;100474.13;1709562;81;21030;-52
2021/06/25 10:27:25;;;;;;;5.33;2.20;;;;;;;31.16;50.24;100467.03;1711995;82;20991;-46
2021/06/25 10:29:52;;;;;;;3.45;2.75;;;;;;;31.17;50.74;100468.70;1719053;82;20962;-50
2021/06/25 10:32:19;;;;;;;5.60;2.27;;;;;;;31.18;51.00;100467.65;1714968;82;21685;-47
2021/06/25 10:34:46;;;;;;;9.68;2.87;;;;;;;31.19;46.99;100464.66;1712378;82;20987;-46
2021/06/25 10:37:22;;;;;;;6.10;2.60;;;;;;;31.25;46.62;100464.30;1720621;82;20980;-46
2021/06/25 10:39:49;;;;;;;4.37;2.08;;;;;;;31.26;44.50;100462.69;1719724;81;20980;-54
2021/06/25 10:42:16;;;;;;;4.12;2.47;;;;;;;31.32;48.47;100463.68;1705488;82;21003;-47
2021/06/25 10:44:55;;;;;;;8.50;2.60;;;;;;;31.33;47.53;100462.63;1714807;82;21435;-46
2021/06/25 10:47:35;;;;;;;8.13;2.67;;;;;;;31.37;45.63;100464.38;1740955;81;20972;-45
2021/06/25 10:50:09;;;;;;;3.58;2.10;;;;;;;31.44;45.59;100462.44;1718056;81;20988;-46
2021/06/25 10:52:39;;;;;;;12.82;3.67;;;;;;;31.47;42.08;100466.11;1724549;82;20999;-50
2021/06/25 10:55:09;;;;;;;3.92;2.10;;;;;;;31.50;45.69;100465.68;1713799;82;21037;-45
2021/06/25 10:57:51;;;;;;;3.70;2.87;;;;;;;31.53;42.97;100465.76;1712071;81;21556;-46
2021/06/25 11:00:39;;;;;;;2.90;2.17;;;;;;;31.56;42.57;100465.30;1711816;82;21007;-43
2021/06/25 11:03:06;;;;;;;7.28;2.27;;;;;;;31.59;45.22;100468.42;1716396;82;20960;-44
2021/06/25 11:05:34;;;;;;;8.10;3.45;;;;;;;31.62;46.53;100462.45;1714770;82;21002;-44
2021/06/25 11:08:17;;;;;;;8.07;3.50;;;;;;;31.64;50.12;100463.06;1702251;81;21019;-43
2021/06/25 11:10:54;;;;;;;6.28;2.05;;;;;;;31.68;49.60;100460.72;1701966;82;21003;-45
2021/06/25 11:13:23;;;;;;;3.10;2.60;;;;;;;31.72;48.46;100460.55;1700521;81;20991;-45
2021/06/25 11:15:52;;;;;;;2.90;1.57;;;;;;;31.76;51.16;100460.95;1705716;82;20967;-46
2021/06/25 11:18:24;;;;;;;6.45;2.62;;;;;;;31.77;51.40;100456.56;1697213;83;21883;-45
2021/06/25 11:20:59;;;;;;;3.15;1.82;;;;;;;31.78;49.73;100454.67;1695602;83;21051;-46
2021/06/25 11:23:42;;;;;;;2.87;2.35;;;;;;;31.78;50.16;100453.30;1692506;83;21008;-44
2021/06/25 11:26:23;;;;;;;7.22;2.95;;;;;;;31.78;51.69;100456.89;1716878;82;21460;-46
2021/06/25 11:28:55;;;;;;;5.20;2.10;;;;;;;31.77;52.60;100452.97;1701188;82;20986;-44
2021/06/25 11:31:27;;;;;;;3.77;2.27;;;;;;;31.77;53.80;100452.42;1708548;82;20972;-44
2021/06/25 11:34:03;;;;;;;3.83;2.35;;;;;;;31.76;54.85;100452.67;1705933;82;20979;-44
2021/06/25 11:36:51;;;;;;;6.15;2.30;;;;;;;31.75;55.92;100453.19;1697300;83;20945;-44